Norwell, Massachusetts
Current Conditions -  °F | °C
As of 4:52 PM on Monday 24 Nov 2014 (Local Time) from KPYM Reporting Station
Overcast Overcast  
Wind Chill: 63°   Ceiling: 1100
Heat Index: 63°   Visibility: 10mi
Dew Point: 60°   Wind: 20mph
Humidity: 90%   Direction: 210°SSW
Pressure: 29.66"   Gusts: 33mph
Location:  42.16°N, 70.79°W
Report Text: KPYM 242152Z AUTO 21017G29KT 10SM OVC011 17/16 A2966 RMK AO2 PK WND 19029/2104 SLP042 T01720156
Loading
Personal Weather Stations






























Interactive Weather Map New forecast layout! Learn more

10-Day Weather Forecast

Advertisements
Track Severe Weather on mobile